createdAt,value
2019-02-09T00:01:21.848Z,1.30
2019-02-09T00:03:50.654Z,1.75
2019-02-09T00:06:19.340Z,1.30
2019-02-09T00:08:48.168Z,1.30
2019-02-09T00:11:16.904Z,1.37
2019-02-09T00:13:45.720Z,1.12
2019-02-09T00:16:14.461Z,1.30
2019-02-09T00:18:43.219Z,1.85
2019-02-09T00:21:11.993Z,1.50
2019-02-09T00:23:40.765Z,1.25
2019-02-09T00:26:09.499Z,1.02
2019-02-09T00:28:38.261Z,1.40
2019-02-09T00:31:07.127Z,1.60
2019-02-09T00:33:35.938Z,1.35
2019-02-09T00:36:05.043Z,1.55
2019-02-09T00:38:33.811Z,1.70
2019-02-09T00:41:02.627Z,1.30
2019-02-09T00:43:31.385Z,1.47
2019-02-09T00:46:02.983Z,1.47
2019-02-09T00:48:31.755Z,1.32
2019-02-09T00:51:00.489Z,1.10
2019-02-09T00:53:29.398Z,1.35
2019-02-09T00:55:58.131Z,1.30
2019-02-09T00:58:26.940Z,1.37
2019-02-09T01:00:55.782Z,1.40
2019-02-09T01:03:24.518Z,1.35
2019-02-09T01:05:53.394Z,1.20
2019-02-09T01:08:22.193Z,1.60
2019-02-09T01:10:50.961Z,1.62
2019-02-09T01:13:19.784Z,1.10
2019-02-09T01:15:48.545Z,0.90
2019-02-09T01:18:17.335Z,1.20
2019-02-09T01:20:46.166Z,1.30
2019-02-09T01:23:14.940Z,1.25
2019-02-09T01:25:43.699Z,1.15
2019-02-09T01:28:12.507Z,1.40
2019-02-09T01:30:41.277Z,1.20
2019-02-09T01:33:10.087Z,1.30
2019-02-09T01:35:57.868Z,1.32
2019-02-09T01:38:26.600Z,1.60
2019-02-09T01:40:55.366Z,1.60
2019-02-09T01:43:24.104Z,1.27
2019-02-09T01:45:52.878Z,1.50
2019-02-09T01:48:21.680Z,1.07
2019-02-09T01:50:50.448Z,1.50
2019-02-09T01:53:19.251Z,1.30
2019-02-09T01:55:48.093Z,1.32
2019-02-09T01:58:16.831Z,1.55
2019-02-09T02:00:45.739Z,1.30
2019-02-09T02:03:14.552Z,1.47
2019-02-09T02:05:43.321Z,1.72
2019-02-09T02:08:12.963Z,1.07
2019-02-09T02:10:41.801Z,1.45
2019-02-09T02:13:10.725Z,1.90
2019-02-09T02:15:39.817Z,1.20
2019-02-09T02:18:09.039Z,1.60
2019-02-09T02:20:37.820Z,1.42
2019-02-09T02:23:06.588Z,1.40
2019-02-09T02:25:35.364Z,1.30
2019-02-09T02:28:23.409Z,1.27
2019-02-09T02:30:52.312Z,1.30
2019-02-09T02:33:21.058Z,1.20
2019-02-09T02:35:49.827Z,1.20
2019-02-09T02:38:18.564Z,1.62
2019-02-09T02:40:47.319Z,1.10
2019-02-09T02:43:16.055Z,1.30
2019-02-09T02:45:44.893Z,1.42
2019-02-09T02:48:13.625Z,1.60
2019-02-09T02:50:42.469Z,1.32
2019-02-09T02:53:11.205Z,1.27
2019-02-09T02:55:39.980Z,1.50
2019-02-09T02:58:08.721Z,1.37
2019-02-09T03:00:37.482Z,1.30
2019-02-09T03:03:06.291Z,1.27
2019-02-09T03:05:35.047Z,1.70
2019-02-09T03:08:03.854Z,1.50
2019-02-09T03:10:32.670Z,1.20
2019-02-09T03:13:01.457Z,1.50
2019-02-09T03:15:30.880Z,1.50
2019-02-09T03:17:59.673Z,1.10
2019-02-09T03:20:28.375Z,1.27
2019-02-09T03:22:57.235Z,1.30
2019-02-09T03:25:27.995Z,1.40
2019-02-09T03:27:56.841Z,1.20
2019-02-09T03:30:25.581Z,1.12
2019-02-09T03:32:54.464Z,1.77
2019-02-09T03:35:23.183Z,1.20
2019-02-09T03:37:51.952Z,1.50
2019-02-09T03:40:21.927Z,1.10
2019-02-09T03:42:50.692Z,1.20
2019-02-09T03:45:39.801Z,1.20
2019-02-09T03:48:08.638Z,1.52
2019-02-09T03:50:37.367Z,1.52
2019-02-09T03:53:06.131Z,1.92
2019-02-09T03:55:34.888Z,1.52
2019-02-09T03:58:03.691Z,1.20
2019-02-09T04:00:32.405Z,1.40
2019-02-09T04:03:02.359Z,1.62
2019-02-09T04:05:31.092Z,1.02
2019-02-09T04:07:59.872Z,1.55
2019-02-09T04:10:28.686Z,1.55
2019-02-09T04:12:57.457Z,1.72
2019-02-09T04:15:26.479Z,1.40
2019-02-09T04:17:55.534Z,1.50
2019-02-09T04:20:24.275Z,1.72
2019-02-09T04:22:53.143Z,1.90
2019-02-09T04:25:21.915Z,1.60
2019-02-09T04:27:50.659Z,1.70
2019-02-09T04:30:21.504Z,1.27
2019-02-09T04:32:50.268Z,1.62
2019-02-09T04:35:19.004Z,1.75
2019-02-09T04:37:47.848Z,1.65
2019-02-09T04:40:22.055Z,1.30
2019-02-09T04:42:50.986Z,1.92
2019-02-09T04:45:19.787Z,1.90
2019-02-09T04:47:48.558Z,1.70
2019-02-09T04:50:17.369Z,1.50
2019-02-09T04:52:46.205Z,1.40
2019-02-09T04:55:19.937Z,1.25
2019-02-09T04:57:48.707Z,1.60
2019-02-09T05:00:20.313Z,1.50
2019-02-09T05:02:50.661Z,1.55
2019-02-09T05:05:19.397Z,1.20
2019-02-09T05:07:48.227Z,1.62
2019-02-09T05:10:17.459Z,1.52
2019-02-09T05:12:46.223Z,1.30
2019-02-09T05:15:15.676Z,1.10
2019-02-09T05:17:44.434Z,1.20
2019-02-09T05:20:15.431Z,1.80
2019-02-09T05:23:03.552Z,1.50
2019-02-09T05:25:32.284Z,1.65
2019-02-09T05:28:01.038Z,1.35
2019-02-09T05:30:29.897Z,1.42
2019-02-09T05:33:00.462Z,1.55
2019-02-09T05:37:57.153Z,1.55
2019-02-09T05:40:25.987Z,1.40
2019-02-09T05:42:54.818Z,1.30
2019-02-09T05:45:25.251Z,1.25
2019-02-09T05:50:21.970Z,1.30
2019-02-09T05:52:50.729Z,1.30
2019-02-09T05:55:19.610Z,1.10
2019-02-09T05:58:07.647Z,1.20
2019-02-09T06:00:38.956Z,1.40
2019-02-09T06:03:07.788Z,1.25
2019-02-09T06:05:36.523Z,1.42
2019-02-09T06:08:05.576Z,1.42
2019-02-09T06:10:34.318Z,1.15
2019-02-09T06:13:03.180Z,1.30
2019-02-09T06:15:31.891Z,1.72
2019-02-09T06:18:00.631Z,1.50
2019-02-09T06:20:29.991Z,1.30
2019-02-09T06:22:58.797Z,1.40
2019-02-09T06:25:27.666Z,1.40
2019-02-09T06:27:56.371Z,1.37
2019-02-09T06:30:26.944Z,1.40
2019-02-09T06:32:55.732Z,1.37
2019-02-09T06:35:24.939Z,1.20
2019-02-09T06:37:53.871Z,1.15
2019-02-09T06:40:22.888Z,1.25
2019-02-09T06:42:54.450Z,1.20
2019-02-09T06:45:23.546Z,1.32
2019-02-09T06:47:52.289Z,1.30
2019-02-09T06:50:29.625Z,1.12
2019-02-09T06:52:58.364Z,1.42
2019-02-09T06:55:27.199Z,1.10
2019-02-09T06:57:56.011Z,1.00
2019-02-09T07:00:24.799Z,1.12
2019-02-09T07:02:54.600Z,0.95
2019-02-09T07:05:23.556Z,1.40
2019-02-09T07:07:52.299Z,1.05
2019-02-09T07:10:22.678Z,1.42
2019-02-09T07:15:24.732Z,1.17
2019-02-09T07:17:53.474Z,1.30
2019-02-09T07:20:22.235Z,1.00
2019-02-09T07:22:50.999Z,1.37
2019-02-09T07:25:20.116Z,0.80
2019-02-09T07:27:48.847Z,1.22
2019-02-09T07:30:20.576Z,1.20
2019-02-09T07:32:49.309Z,1.40
2019-02-09T07:35:18.076Z,1.20
2019-02-09T07:37:52.703Z,1.40
2019-02-09T07:40:22.330Z,1.52
2019-02-09T07:42:51.062Z,1.15
2019-02-09T07:45:21.763Z,1.20
2019-02-09T07:47:50.499Z,1.30
2019-02-09T07:50:19.994Z,1.30
2019-02-09T07:52:48.718Z,1.00
2019-02-09T07:55:17.776Z,1.35
2019-02-09T07:57:46.562Z,1.07
2019-02-09T08:00:20.817Z,1.50
2019-02-09T08:02:49.552Z,1.10
2019-02-09T08:05:18.340Z,1.42
2019-02-09T08:07:47.076Z,1.37
2019-02-09T08:10:18.375Z,1.40
2019-02-09T08:12:47.116Z,1.10
2019-02-09T08:15:21.389Z,0.90
2019-02-09T08:17:50.148Z,1.70
2019-02-09T08:20:19.933Z,1.40
2019-02-09T08:22:48.730Z,0.93
2019-02-09T08:25:19.611Z,1.20
2019-02-09T08:27:49.735Z,1.30
2019-02-09T08:30:27.320Z,1.10
2019-02-09T08:32:56.054Z,1.47
2019-02-09T08:35:24.896Z,1.00
2019-02-09T08:37:53.684Z,1.00
2019-02-09T08:40:22.448Z,1.20
2019-02-09T08:42:51.191Z,1.20
2019-02-09T08:45:20.142Z,1.17
2019-02-09T08:47:48.882Z,1.30
2019-02-09T08:50:26.531Z,1.60
2019-02-09T08:52:55.271Z,1.05
2019-02-09T08:55:24.100Z,1.42
2019-02-09T08:57:53.103Z,1.50
2019-02-09T09:00:23.957Z,1.40
2019-02-09T09:02:52.714Z,1.40
2019-02-09T09:05:21.452Z,1.92
2019-02-09T09:07:50.289Z,1.30
2019-02-09T09:10:20.299Z,1.20
2019-02-09T09:12:49.135Z,1.30
2019-02-09T09:15:21.364Z,1.20
2019-02-09T09:17:50.203Z,1.30
2019-02-09T09:20:41.404Z,1.17
2019-02-09T09:23:10.439Z,1.17
2019-02-09T09:25:39.244Z,1.42
2019-02-09T09:28:08.020Z,1.60
2019-02-09T09:30:36.777Z,1.07
2019-02-09T09:33:05.756Z,1.00
2019-02-09T09:35:34.494Z,1.22
2019-02-09T09:38:03.272Z,1.15
2019-02-09T09:40:52.371Z,1.20
2019-02-09T09:43:21.205Z,1.27
2019-02-09T09:45:49.955Z,1.30
2019-02-09T09:48:19.338Z,1.55
2019-02-09T09:50:48.071Z,1.47
2019-02-09T09:53:16.982Z,1.20
2019-02-09T09:55:45.713Z,1.00
2019-02-09T09:58:14.483Z,1.40
2019-02-09T10:00:43.294Z,1.30
2019-02-09T10:03:12.127Z,1.10
2019-02-09T10:05:40.862Z,1.40
2019-02-09T10:08:09.693Z,1.22
2019-02-09T10:10:38.536Z,1.40
2019-02-09T10:13:07.380Z,1.10
2019-02-09T10:15:36.110Z,1.45
2019-02-09T10:18:05.356Z,1.40
2019-02-09T10:20:34.096Z,1.32
2019-02-09T10:23:02.968Z,1.35
2019-02-09T10:25:31.803Z,1.62
2019-02-09T10:28:00.563Z,1.52
2019-02-09T10:30:29.771Z,1.50
2019-02-09T10:32:58.534Z,1.50
2019-02-09T10:35:27.333Z,1.55
2019-02-09T10:37:56.176Z,1.65
2019-02-09T10:40:26.978Z,1.70
2019-02-09T10:42:55.802Z,1.72
2019-02-09T10:45:26.184Z,1.17
2019-02-09T10:50:26.119Z,1.35
2019-02-09T10:52:54.888Z,1.62
2019-02-09T10:55:23.624Z,2.10
2019-02-09T10:57:52.392Z,2.12
2019-02-09T11:00:24.660Z,1.90
2019-02-09T11:02:53.453Z,1.87
2019-02-09T11:05:22.258Z,2.00
2019-02-09T11:07:51.029Z,1.87
2019-02-09T11:10:19.944Z,1.70
2019-02-09T11:12:48.824Z,1.80
2019-02-09T11:15:18.941Z,1.82
2019-02-09T11:17:47.752Z,1.70
2019-02-09T11:20:18.170Z,1.77
2019-02-09T11:25:34.066Z,2.00
2019-02-09T11:28:02.830Z,1.60
2019-02-09T11:30:31.593Z,2.25
2019-02-09T11:33:02.301Z,2.40
2019-02-09T11:35:30.889Z,1.87
2019-02-09T11:37:59.753Z,1.77
2019-02-09T11:40:28.661Z,1.60
2019-02-09T11:42:58.301Z,1.82
2019-02-09T11:45:28.203Z,1.50
2019-02-09T11:47:57.080Z,2.10
2019-02-09T11:50:25.924Z,1.80
2019-02-09T11:52:54.723Z,1.72
2019-02-09T11:55:23.550Z,1.90
2019-02-09T11:58:20.664Z,1.77
2019-02-09T12:00:51.921Z,1.47
2019-02-09T12:03:20.726Z,1.67
2019-02-09T12:05:49.465Z,1.85
2019-02-09T12:08:18.252Z,1.65
2019-02-09T12:10:47.057Z,1.65
2019-02-09T12:13:15.795Z,1.60
2019-02-09T12:15:44.641Z,2.17
2019-02-09T12:18:13.434Z,2.30
2019-02-09T12:20:42.201Z,2.10
2019-02-09T12:23:10.971Z,2.15
2019-02-09T12:25:39.757Z,1.75
2019-02-09T12:28:27.960Z,1.80
2019-02-09T12:30:56.716Z,1.77
2019-02-09T12:33:25.543Z,2.33
2019-02-09T12:35:54.307Z,1.70
2019-02-09T12:38:23.048Z,1.90
2019-02-09T12:40:51.804Z,1.67
2019-02-09T12:43:20.539Z,2.10
2019-02-09T12:45:49.336Z,1.92
2019-02-09T12:48:18.072Z,1.80
2019-02-09T12:50:46.836Z,2.12
2019-02-09T12:53:15.664Z,1.80
2019-02-09T12:55:44.424Z,1.75
2019-02-09T12:58:13.244Z,2.10
2019-02-09T13:00:42.013Z,2.30
2019-02-09T13:03:30.694Z,1.90
2019-02-09T13:05:53.046Z,2.30
2019-02-09T13:08:21.789Z,1.87
2019-02-09T13:10:50.731Z,1.90
2019-02-09T13:13:19.480Z,1.65
2019-02-09T13:15:48.320Z,1.80
2019-02-09T13:18:17.060Z,1.70
2019-02-09T13:20:45.838Z,1.65
2019-02-09T13:23:14.600Z,1.77
2019-02-09T13:25:43.366Z,2.10
2019-02-09T13:28:12.112Z,1.60
2019-02-09T13:30:40.995Z,2.15
2019-02-09T13:33:09.729Z,3.05
2019-02-09T13:35:38.571Z,2.27
2019-02-09T13:38:07.307Z,2.52
2019-02-09T13:40:36.148Z,1.87
2019-02-09T13:43:04.912Z,2.30
2019-02-09T13:45:36.078Z,2.27
2019-02-09T13:48:04.895Z,2.15
2019-02-09T13:50:34.196Z,2.52
2019-02-09T13:53:02.927Z,1.75
2019-02-09T13:55:31.780Z,2.33
2019-02-09T13:58:00.526Z,2.10
2019-02-09T14:00:35.321Z,1.92
2019-02-09T14:03:04.111Z,2.20
2019-02-09T14:05:32.873Z,1.85
2019-02-09T14:08:01.618Z,2.17
2019-02-09T14:10:30.376Z,2.17
2019-02-09T14:12:59.118Z,2.40
2019-02-09T14:15:48.120Z,2.02
2019-02-09T14:18:36.131Z,1.70
2019-02-09T14:21:05.058Z,2.05
2019-02-09T14:23:33.820Z,2.00
2019-02-09T14:26:02.652Z,1.52
2019-02-09T14:28:31.755Z,1.92
2019-02-09T14:31:00.516Z,1.98
2019-02-09T14:33:29.364Z,1.87
2019-02-09T14:35:58.125Z,1.60
2019-02-09T14:38:26.848Z,1.30
2019-02-09T14:40:55.617Z,2.15
2019-02-09T14:43:24.359Z,2.10
2019-02-09T14:45:53.123Z,2.00
2019-02-09T14:48:21.856Z,1.40
2019-02-09T14:50:50.635Z,1.87
2019-02-09T14:53:19.379Z,1.60
2019-02-09T14:55:48.207Z,1.90
2019-02-09T14:58:17.009Z,1.87
2019-02-09T15:00:48.538Z,1.90
2019-02-09T15:03:17.300Z,1.92
2019-02-09T15:05:46.122Z,2.47
2019-02-09T15:08:14.881Z,1.85
2019-02-09T15:10:43.699Z,2.30
2019-02-09T15:13:13.457Z,2.30
2019-02-09T15:16:18.478Z,1.98
2019-02-09T15:18:47.222Z,2.10
2019-02-09T15:21:16.008Z,2.75
2019-02-09T15:23:44.779Z,2.00
2019-02-09T15:26:13.685Z,2.27
2019-02-09T15:28:43.016Z,2.05
2019-02-09T15:31:11.829Z,1.80
2019-02-09T15:33:40.596Z,2.17
2019-02-09T15:36:09.404Z,2.20
2019-02-09T15:38:38.176Z,2.08
2019-02-09T15:41:06.917Z,2.22
2019-02-09T15:43:35.693Z,1.98
2019-02-09T15:46:04.620Z,2.30
2019-02-09T15:48:33.384Z,2.50
2019-02-09T15:51:02.192Z,2.00
2019-02-09T15:53:30.991Z,1.90
2019-02-09T15:55:59.728Z,2.00
2019-02-09T15:58:28.493Z,2.02
2019-02-09T16:00:57.322Z,2.20
2019-02-09T16:03:27.022Z,2.12
2019-02-09T16:05:55.833Z,1.95
2019-02-09T16:08:24.669Z,2.20
2019-02-09T16:10:53.407Z,2.40
2019-02-09T16:13:22.164Z,1.77
2019-02-09T16:15:52.400Z,2.20
2019-02-09T16:18:21.435Z,2.30
2019-02-09T16:20:50.171Z,1.50
2019-02-09T16:23:18.984Z,2.10
2019-02-09T16:25:47.720Z,1.85
2019-02-09T16:28:17.639Z,1.72
2019-02-09T16:30:46.503Z,1.98
2019-02-09T16:33:15.441Z,2.08
2019-02-09T16:35:44.325Z,1.82
2019-02-09T16:38:13.172Z,1.80
2019-02-09T16:40:41.948Z,1.98
2019-02-09T16:43:10.807Z,2.10
2019-02-09T16:45:39.548Z,1.98
2019-02-09T16:48:08.417Z,1.80
2019-02-09T16:50:37.159Z,1.62
2019-02-09T16:53:06.019Z,1.85
2019-02-09T16:55:34.919Z,2.05
2019-02-09T16:58:03.683Z,2.05
2019-02-09T17:00:34.559Z,2.05
2019-02-09T17:03:03.323Z,2.10
2019-02-09T17:05:51.332Z,1.92
2019-02-09T17:08:20.091Z,2.12
2019-02-09T17:10:48.983Z,1.87
2019-02-09T17:13:17.806Z,1.80
2019-02-09T17:15:46.617Z,1.82
2019-02-09T17:18:15.408Z,1.80
2019-02-09T17:20:44.138Z,1.87
2019-02-09T17:23:12.969Z,1.70
2019-02-09T17:25:41.812Z,1.42
2019-02-09T17:28:10.659Z,2.00
2019-02-09T17:30:39.459Z,1.60
2019-02-09T17:33:08.559Z,1.62
2019-02-09T17:35:37.327Z,1.98
2019-02-09T17:38:06.881Z,2.00
2019-02-09T17:40:44.479Z,1.62
2019-02-09T17:43:13.524Z,2.27
2019-02-09T17:45:48.733Z,2.20
2019-02-09T17:48:17.561Z,1.70
2019-02-09T17:50:47.525Z,1.90
2019-02-09T17:53:16.248Z,1.90
2019-02-09T17:55:45.013Z,1.90
2019-02-09T17:58:13.748Z,2.30
2019-02-09T18:00:45.637Z,2.33
2019-02-09T18:03:14.724Z,1.77
2019-02-09T18:05:43.480Z,1.80
2019-02-09T18:08:12.302Z,2.02
2019-02-09T18:10:41.142Z,2.20
2019-02-09T18:13:09.877Z,1.75
2019-02-09T18:15:38.638Z,2.10
2019-02-09T18:18:07.653Z,1.95
2019-02-09T18:20:36.411Z,2.02
2019-02-09T18:23:05.558Z,1.80
2019-02-09T18:25:34.350Z,1.90
2019-02-09T18:28:03.168Z,1.87
2019-02-09T18:30:31.959Z,1.92
2019-02-09T18:33:00.696Z,1.98
2019-02-09T18:35:29.500Z,2.17
2019-02-09T18:37:58.787Z,2.30
2019-02-09T18:40:27.832Z,1.90
2019-02-09T18:42:56.568Z,1.90
2019-02-09T18:45:26.400Z,1.80
2019-02-09T18:47:55.138Z,1.92
2019-02-09T18:50:25.428Z,2.17
2019-02-09T18:52:54.784Z,2.62
2019-02-09T18:55:24.511Z,2.22
2019-02-09T18:57:53.320Z,2.25
2019-02-09T19:00:24.119Z,2.52
2019-02-09T19:02:52.876Z,1.90
2019-02-09T19:05:21.636Z,2.60
2019-02-09T19:07:50.438Z,2.40
2019-02-09T19:10:23.727Z,1.92
2019-02-09T19:12:52.461Z,2.20
2019-02-09T19:15:22.255Z,2.35
2019-02-09T19:17:51.110Z,2.33
2019-02-09T19:20:27.465Z,1.95
2019-02-09T19:22:56.332Z,2.40
2019-02-09T19:25:25.396Z,2.10
2019-02-09T19:27:54.129Z,2.02
2019-02-09T19:30:23.095Z,2.30
2019-02-09T19:33:12.849Z,2.20
2019-02-09T19:35:41.611Z,1.52
2019-02-09T19:38:10.632Z,2.37
2019-02-09T19:40:39.387Z,1.98
2019-02-09T19:43:08.115Z,1.77
2019-02-09T19:45:36.956Z,2.47
2019-02-09T19:48:05.910Z,2.05
2019-02-09T19:50:34.667Z,2.00
2019-02-09T19:53:03.477Z,1.95
2019-02-09T19:55:32.352Z,2.22
2019-02-09T19:58:01.095Z,2.00
2019-02-09T20:00:32.147Z,2.20
2019-02-09T20:03:01.028Z,2.02
2019-02-09T20:05:29.796Z,2.12
2019-02-09T20:07:58.611Z,2.27
2019-02-09T20:10:29.793Z,1.92
2019-02-09T20:12:58.565Z,1.92
2019-02-09T20:15:27.309Z,1.70
2019-02-09T20:17:56.135Z,2.15
2019-02-09T20:20:24.941Z,2.00
2019-02-09T20:22:53.776Z,2.00
2019-02-09T20:25:22.945Z,2.00
2019-02-09T20:27:51.787Z,2.35
2019-02-09T20:30:22.733Z,1.80
2019-02-09T20:32:51.540Z,2.08
2019-02-09T20:35:39.421Z,1.87
2019-02-09T20:38:08.205Z,2.27
2019-02-09T20:40:39.238Z,1.85
2019-02-09T20:43:09.597Z,2.02
2019-02-09T20:48:06.661Z,1.60
2019-02-09T20:50:35.472Z,1.95
2019-02-09T20:53:04.376Z,2.02
2019-02-09T20:55:33.123Z,2.30
2019-02-09T20:58:01.886Z,2.15
2019-02-09T21:00:30.687Z,2.10
2019-02-09T21:02:59.432Z,1.80
2019-02-09T21:05:35.629Z,1.95
2019-02-09T21:10:30.676Z,2.72
2019-02-09T21:12:59.510Z,2.55
2019-02-09T21:15:28.511Z,2.08
2019-02-09T21:17:57.363Z,2.25
2019-02-09T21:20:26.178Z,2.10
2019-02-09T21:22:55.033Z,2.08
2019-02-09T21:25:31.578Z,2.22
2019-02-09T21:28:00.414Z,2.27
2019-02-09T21:30:29.171Z,2.12
2019-02-09T21:32:57.951Z,1.85
2019-02-09T21:35:26.783Z,1.80
2019-02-09T21:37:55.619Z,2.22
2019-02-09T21:40:25.708Z,2.20
2019-02-09T21:42:54.467Z,2.05
2019-02-09T21:45:23.524Z,2.47
2019-02-09T21:47:52.433Z,2.27
2019-02-09T21:50:23.163Z,2.08
2019-02-09T21:52:52.009Z,1.95
2019-02-09T21:55:20.923Z,2.45
2019-02-09T21:57:49.792Z,2.30
2019-02-09T22:00:26.459Z,2.27
2019-02-09T22:02:55.498Z,1.82
2019-02-09T22:05:24.288Z,1.65
2019-02-09T22:07:53.063Z,2.08
2019-02-09T22:10:29.340Z,2.15
2019-02-09T22:12:53.125Z,2.10
2019-02-09T22:15:22.842Z,2.22
2019-02-09T22:17:51.615Z,1.62
2019-02-09T22:20:20.480Z,2.00
2019-02-09T22:22:49.379Z,1.87
2019-02-09T22:25:38.337Z,2.27
2019-02-09T22:28:07.127Z,1.70
2019-02-09T22:30:35.860Z,1.80
2019-02-09T22:33:04.764Z,2.22
2019-02-09T22:35:33.703Z,2.05
2019-02-09T22:38:08.353Z,2.30
2019-02-09T22:40:37.984Z,2.20
2019-02-09T22:43:26.263Z,1.90
2019-02-09T22:45:54.994Z,2.08
2019-02-09T22:48:23.757Z,2.20
2019-02-09T22:50:52.488Z,1.82
2019-02-09T22:53:21.294Z,2.10
2019-02-09T22:55:50.036Z,2.02
2019-02-09T22:58:18.816Z,1.95
2019-02-09T23:01:20.249Z,2.08
2019-02-09T23:04:24.067Z,1.98
2019-02-09T23:07:06.043Z,1.60
2019-02-09T23:09:34.995Z,2.20
2019-02-09T23:12:03.747Z,1.90
2019-02-09T23:14:32.576Z,1.80
2019-02-09T23:17:01.392Z,1.60
2019-02-09T23:19:30.149Z,2.05
2019-02-09T23:21:58.900Z,1.70
2019-02-09T23:24:27.662Z,2.17
2019-02-09T23:26:56.488Z,1.85
2019-02-09T23:29:25.249Z,1.92
2019-02-09T23:31:54.055Z,1.70
2019-02-09T23:34:22.820Z,2.05
2019-02-09T23:36:51.660Z,2.08
2019-02-09T23:39:20.485Z,1.80
2019-02-09T23:41:49.222Z,2.02
2019-02-09T23:44:18.081Z,2.12
2019-02-09T23:46:46.810Z,2.25
2019-02-09T23:49:15.580Z,2.20
2019-02-09T23:51:44.490Z,2.10
2019-02-09T23:54:13.252Z,1.90
2019-02-09T23:56:41.979Z,2.12
2019-02-09T23:59:10.734Z,1.90
